Kyokuho Maru No.15 — JI3715 — position and weather

sailwx.info

Track history (hours):
 
Tides and Currents Weather Stations Pressure Air Temp Water Temp Dewpoint Dewpoint Depression Visibility Wind Speed Wind Dir Waves Ship Positions

Kyokuho Maru No.15

Last reported at 2017-Jun-22 22:07 UTC. Time now 2017-Jun-23 02:03 UTC.
Position N 35°32' E 140°03'.

Length 63 m; draft 3.2 m.

Type: Tanker. MMSI: 431301714.

Date/timePositionNaut miles runAvg speedWind from/ knotsBaromVisibWave heightAir tempDewpointWater temp
2017-Jun-22 22:07N 35°32' E 140°03'1 6.4
2017-Jun-22 22:01N 35°32' E 140°03'611.6
2017-Jun-22 21:30N 35°28' E 139°57'1 1.2
2017-Jun-22 20:38N 35°28' E 139°56'0 0.0
2017-Jun-22 20:17N 35°28' E 139°56'0 0.0
2017-Jun-22 19:20N 35°28' E 139°56'0 0.0
2017-Jun-22 18:56N 35°28' E 139°56'0 0.0
2017-Jun-22 18:20N 35°28' E 139°56'0 0.0
2017-Jun-22 17:59N 35°28' E 139°56'0 0.0
2017-Jun-22 17:29N 35°28' E 139°56'0 0.0
2017-Jun-22 16:59N 35°28' E 139°56'0 0.0
2017-Jun-22 13:59N 35°28' E 139°56'0 0.0
2017-Jun-22 12:14N 35°28' E 139°56'0 0.2
2017-Jun-22 11:59N 35°28' E 139°56'0 0.0
2017-Jun-22 11:14N 35°28' E 139°56'0 0.0
2017-Jun-22 10:59N 35°28' E 139°56'0 0.0
2017-Jun-22 10:26N 35°28' E 139°56'0 0.0
2017-Jun-22 09:32N 35°28' E 139°56'0 1.3
2017-Jun-22 09:30N 35°28' E 139°56'5 1.8
2017-Jun-22 06:35N 35°30' E 140°02'0 0.0
2017-Jun-22 06:27N 35°30' E 140°02'0 0.0
2017-Jun-22 03:41N 35°30' E 140°02'2 5.6
2017-Jun-22 03:24N 35°31' E 140°00'5 1.0
2017-Jun-21 22:16N 35°33' E 140°06'0 1.1
2017-Jun-21 21:59N 35°33' E 140°06'7 9.0
2017-Jun-21 21:15N 35°30' E 139°59'311.3
2017-Jun-21 21:00N 35°28' E 139°56'0 0.1
2017-Jun-21 20:24N 35°28' E 139°56'0 0.1
2017-Jun-21 19:50N 35°28' E 139°56'0 0.0
2017-Jun-21 19:09N 35°28' E 139°56'0 0.0
2017-Jun-21 19:00N 35°28' E 139°56'0 0.0
2017-Jun-21 18:28N 35°28' E 139°56'0 0.0
2017-Jun-21 17:38N 35°28' E 139°56'0 0.0
2017-Jun-21 17:26N 35°28' E 139°56'0 0.0
2017-Jun-21 16:55N 35°28' E 139°56'0 0.0
2017-Jun-21 13:09N 35°28' E 139°56'0 0.0
2017-Jun-21 12:50N 35°28' E 139°56'0 0.0
2017-Jun-21 12:29N 35°28' E 139°56'0 0.0
2017-Jun-21 11:59N 35°28' E 139°56'0 0.0
2017-Jun-21 11:14N 35°28' E 139°56'0 0.0
2017-Jun-21 10:59N 35°28' E 139°56'0 0.0
2017-Jun-21 10:29N 35°28' E 139°56'0 0.0
2017-Jun-21 09:57N 35°28' E 139°56'0 0.0
2017-Jun-21 09:20N 35°28' E 139°56'0 0.0
2017-Jun-21 08:59N 35°28' E 139°56'0 0.1
2017-Jun-21 08:29N 35°28' E 139°56'0 0.0
2017-Jun-21 07:59N 35°28' E 139°56'0 0.0
2017-Jun-21 07:29N 35°28' E 139°56'0 0.0
2017-Jun-21 06:59N 35°28' E 139°56'0 0.1
2017-Jun-21 06:29N 35°28' E 139°56'0 0.0
2017-Jun-21 06:00N 35°28' E 139°56'0 0.0
2017-Jun-21 05:29N 35°28' E 139°56'0 0.0
2017-Jun-21 05:00N 35°28' E 139°56'0 0.0
2017-Jun-21 04:29N 35°28' E 139°56'0 0.0
2017-Jun-21 03:59N 35°28' E 139°56'0 0.0
2017-Jun-21 03:30N 35°28' E 139°56'0 0.0
2017-Jun-21 02:57N 35°28' E 139°56'0 0.0
2017-Jun-21 02:30N 35°28' E 139°56'0 0.0
2017-Jun-21 02:00N 35°28' E 139°56'4 1.4
2017-Jun-20 23:15N 35°29' E 140°01'2 9.8
2017-Jun-20 23:00N 35°29' E 139°58'1 1.3
2017-Jun-20 21:53N 35°28' E 139°56'0 0.0
2017-Jun-20 21:23N 35°28' E 139°56'0 0.0
2017-Jun-20 20:39N 35°28' E 139°56'0 0.3
2017-Jun-20 20:30N 35°28' E 139°56'0 0.0
2017-Jun-20 19:59N 35°28' E 139°56'0 0.0
2017-Jun-20 19:27N 35°28' E 139°56'0 0.0
2017-Jun-20 18:58N 35°28' E 139°56'0 0.0
2017-Jun-20 18:27N 35°28' E 139°56'0 0.0
2017-Jun-20 17:57N 35°28' E 139°56'0 0.0
2017-Jun-20 17:30N 35°28' E 139°56'0 0.0
2017-Jun-20 17:00N 35°28' E 139°56'0 0.0
2017-Jun-20 16:30N 35°28' E 139°56'0 0.0
2017-Jun-20 16:00N 35°28' E 139°56'0 0.0
2017-Jun-20 15:27N 35°28' E 139°56'0 0.0
2017-Jun-20 14:57N 35°28' E 139°56'0 0.0
2017-Jun-20 14:00N 35°28' E 139°56'0 0.0
2017-Jun-20 13:27N 35°28' E 139°56'0 0.0
2017-Jun-20 12:57N 35°28' E 139°56'0 0.0
2017-Jun-20 11:51N 35°28' E 139°56'0 0.0
2017-Jun-20 11:27N 35°28' E 139°56'0 0.0
2017-Jun-20 10:54N 35°28' E 139°56'0 0.0
2017-Jun-20 10:06N 35°28' E 139°56'0 0.0
2017-Jun-20 10:00N 35°28' E 139°56'4 7.9
2017-Jun-20 09:30N 35°28' E 139°51'611.7
2017-Jun-20 09:00N 35°24' E 139°46'611.1
2017-Jun-20 08:30N 35°18' E 139°45'510.7
2017-Jun-20 08:00N 35°13' E 139°47'245 9.4
2017-Jun-19 06:05N 34°04' E 135°01'111.8
2017-Jun-19 06:00N 34°05' E 135°02'611.4
2017-Jun-19 05:30N 34°11' E 135°02'19 0.8
2017-Jun-18 04:29N 34°28' E 135°13'1511.8
2017-Jun-18 03:10N 34°15' E 135°03'212.3
2017-Jun-18 03:01N 34°13' E 135°03'235 9.3
2017-Jun-17 01:41N 35°07' E 139°41'212.3
2017-Jun-17 01:29N 35°09' E 139°43'612.1
2017-Jun-17 01:00N 35°14' E 139°46'612.0
2017-Jun-17 00:30N 35°19' E 139°43'611.0
2017-Jun-17 00:00N 35°25' E 139°44'611.4
2017-Jun-16 23:30N 35°28' E 139°49'612.3
2017-Jun-16 23:00N 35°32' E 139°56'  
2017-Jun-14 07:58N 35°35' E 139°59'4 1.0
2017-Jun-14 03:45N 35°32' E 140°02'510.9
2017-Jun-14 03:15N 35°31' E 139°56'310.8
2017-Jun-14 03:00N 35°30' E 139°53'510.7
2017-Jun-14 02:30N 35°31' E 139°46'1 1.2
2017-Jun-14 02:00N 35°31' E 139°46'0 0.0
2017-Jun-14 01:30N 35°31' E 139°46'0 0.0
2017-Jun-14 01:00N 35°31' E 139°46'0 0.0
2017-Jun-14 00:30N 35°31' E 139°46'0 0.0
2017-Jun-14 00:00N 35°31' E 139°46'0 0.0
2017-Jun-13 23:30N 35°31' E 139°46'0 0.0
2017-Jun-13 23:00N 35°31' E 139°46'0 0.0
2017-Jun-13 22:30N 35°31' E 139°46'0 0.0
2017-Jun-13 22:00N 35°31' E 139°46'2 3.5
2017-Jun-13 21:30N 35°30' E 139°47'2 3.2
2017-Jun-13 20:58N 35°29' E 139°49'0 0.0
2017-Jun-13 20:28N 35°29' E 139°49'0 0.0
2017-Jun-13 19:58N 35°29' E 139°49'0 0.0
2017-Jun-13 19:28N 35°29' E 139°49'0 0.0
2017-Jun-13 18:55N 35°29' E 139°49'0 0.0
2017-Jun-13 18:28N 35°29' E 139°49'0 0.1
2017-Jun-13 17:58N 35°29' E 139°48'0 0.0
2017-Jun-13 17:28N 35°29' E 139°48'0 0.0
2017-Jun-13 16:55N 35°29' E 139°48'0 0.0
2017-Jun-13 16:28N 35°29' E 139°48'0 0.0
2017-Jun-13 15:58N 35°29' E 139°48'0 0.0
2017-Jun-13 15:28N 35°29' E 139°48'0 0.0
2017-Jun-13 14:58N 35°29' E 139°48'0 0.0
2017-Jun-13 14:28N 35°29' E 139°48'0 0.0
2017-Jun-13 13:28N 35°29' E 139°49'0 0.0
2017-Jun-13 12:58N 35°29' E 139°49'0 0.1
2017-Jun-13 12:28N 35°29' E 139°48'0 0.1
2017-Jun-13 11:58N 35°29' E 139°49'0 0.0
2017-Jun-13 11:28N 35°29' E 139°49'0 0.1
2017-Jun-13 10:58N 35°29' E 139°48'2 4.2
2017-Jun-13 10:30N 35°30' E 139°47'2 0.7
2017-Jun-13 07:57N 35°32' E 139°45'0 0.0
2017-Jun-13 04:34N 35°32' E 139°45'0 2.4
2017-Jun-13 04:25N 35°32' E 139°46'4 9.2
2017-Jun-13 03:59N 35°31' E 139°50'  
Track history (hours):
 
Tides and Currents Weather Stations Pressure Air Temp Water Temp Dewpoint Dewpoint Depression Visibility Wind Speed Wind Dir Waves Ship Positions

Kyokuho Maru No.15

Last reported at 2017-Jun-22 22:07 UTC. Time now 2017-Jun-23 02:03 UTC.
Position N 35°32' E 140°03'.

Length 63 m; draft 3.2 m.

Type: Tanker. MMSI: 431301714.

Date/timePositionNaut miles runAvg speedWind from/ knotsBaromVisibWave heightAir tempDewpointWater temp
2017-Jun-22 22:07N 35°32' E 140°03'1 6.4
2017-Jun-22 22:01N 35°32' E 140°03'611.6
2017-Jun-22 21:30N 35°28' E 139°57'1 1.2
2017-Jun-22 20:38N 35°28' E 139°56'0 0.0
2017-Jun-22 20:17N 35°28' E 139°56'0 0.0
2017-Jun-22 19:20N 35°28' E 139°56'0 0.0
2017-Jun-22 18:56N 35°28' E 139°56'0 0.0
2017-Jun-22 18:20N 35°28' E 139°56'0 0.0
2017-Jun-22 17:59N 35°28' E 139°56'0 0.0
2017-Jun-22 17:29N 35°28' E 139°56'0 0.0
2017-Jun-22 16:59N 35°28' E 139°56'0 0.0
2017-Jun-22 13:59N 35°28' E 139°56'0 0.0
2017-Jun-22 12:14N 35°28' E 139°56'0 0.2
2017-Jun-22 11:59N 35°28' E 139°56'0 0.0
2017-Jun-22 11:14N 35°28' E 139°56'0 0.0
2017-Jun-22 10:59N 35°28' E 139°56'0 0.0
2017-Jun-22 10:26N 35°28' E 139°56'0 0.0
2017-Jun-22 09:32N 35°28' E 139°56'0 1.3
2017-Jun-22 09:30N 35°28' E 139°56'5 1.8
2017-Jun-22 06:35N 35°30' E 140°02'0 0.0
2017-Jun-22 06:27N 35°30' E 140°02'0 0.0
2017-Jun-22 03:41N 35°30' E 140°02'2 5.6
2017-Jun-22 03:24N 35°31' E 140°00'5 1.0
2017-Jun-21 22:16N 35°33' E 140°06'0 1.1
2017-Jun-21 21:59N 35°33' E 140°06'7 9.0
2017-Jun-21 21:15N 35°30' E 139°59'311.3
2017-Jun-21 21:00N 35°28' E 139°56'0 0.1
2017-Jun-21 20:24N 35°28' E 139°56'0 0.1
2017-Jun-21 19:50N 35°28' E 139°56'0 0.0
2017-Jun-21 19:09N 35°28' E 139°56'0 0.0
2017-Jun-21 19:00N 35°28' E 139°56'0 0.0
2017-Jun-21 18:28N 35°28' E 139°56'0 0.0
2017-Jun-21 17:38N 35°28' E 139°56'0 0.0
2017-Jun-21 17:26N 35°28' E 139°56'0 0.0
2017-Jun-21 16:55N 35°28' E 139°56'0 0.0
2017-Jun-21 13:09N 35°28' E 139°56'0 0.0
2017-Jun-21 12:50N 35°28' E 139°56'0 0.0
2017-Jun-21 12:29N 35°28' E 139°56'0 0.0
2017-Jun-21 11:59N 35°28' E 139°56'0 0.0
2017-Jun-21 11:14N 35°28' E 139°56'0 0.0
2017-Jun-21 10:59N 35°28' E 139°56'0 0.0
2017-Jun-21 10:29N 35°28' E 139°56'0 0.0
2017-Jun-21 09:57N 35°28' E 139°56'0 0.0
2017-Jun-21 09:20N 35°28' E 139°56'0 0.0
2017-Jun-21 08:59N 35°28' E 139°56'0 0.1
2017-Jun-21 08:29N 35°28' E 139°56'0 0.0
2017-Jun-21 07:59N 35°28' E 139°56'0 0.0
2017-Jun-21 07:29N 35°28' E 139°56'0 0.0
2017-Jun-21 06:59N 35°28' E 139°56'0 0.1
2017-Jun-21 06:29N 35°28' E 139°56'0 0.0
2017-Jun-21 06:00N 35°28' E 139°56'0 0.0
2017-Jun-21 05:29N 35°28' E 139°56'0 0.0
2017-Jun-21 05:00N 35°28' E 139°56'0 0.0
2017-Jun-21 04:29N 35°28' E 139°56'0 0.0
2017-Jun-21 03:59N 35°28' E 139°56'0 0.0
2017-Jun-21 03:30N 35°28' E 139°56'0 0.0
2017-Jun-21 02:57N 35°28' E 139°56'0 0.0
2017-Jun-21 02:30N 35°28' E 139°56'0 0.0
2017-Jun-21 02:00N 35°28' E 139°56'4 1.4
2017-Jun-20 23:15N 35°29' E 140°01'2 9.8
2017-Jun-20 23:00N 35°29' E 139°58'1 1.3
2017-Jun-20 21:53N 35°28' E 139°56'0 0.0
2017-Jun-20 21:23N 35°28' E 139°56'0 0.0
2017-Jun-20 20:39N 35°28' E 139°56'0 0.3
2017-Jun-20 20:30N 35°28' E 139°56'0 0.0
2017-Jun-20 19:59N 35°28' E 139°56'0 0.0
2017-Jun-20 19:27N 35°28' E 139°56'0 0.0
2017-Jun-20 18:58N 35°28' E 139°56'0 0.0
2017-Jun-20 18:27N 35°28' E 139°56'0 0.0
2017-Jun-20 17:57N 35°28' E 139°56'0 0.0
2017-Jun-20 17:30N 35°28' E 139°56'0 0.0
2017-Jun-20 17:00N 35°28' E 139°56'0 0.0
2017-Jun-20 16:30N 35°28' E 139°56'0 0.0
2017-Jun-20 16:00N 35°28' E 139°56'0 0.0
2017-Jun-20 15:27N 35°28' E 139°56'0 0.0
2017-Jun-20 14:57N 35°28' E 139°56'0 0.0
2017-Jun-20 14:00N 35°28' E 139°56'0 0.0
2017-Jun-20 13:27N 35°28' E 139°56'0 0.0
2017-Jun-20 12:57N 35°28' E 139°56'0 0.0
2017-Jun-20 11:51N 35°28' E 139°56'0 0.0
2017-Jun-20 11:27N 35°28' E 139°56'0 0.0
2017-Jun-20 10:54N 35°28' E 139°56'0 0.0
2017-Jun-20 10:06N 35°28' E 139°56'0 0.0
2017-Jun-20 10:00N 35°28' E 139°56'4 7.9
2017-Jun-20 09:30N 35°28' E 139°51'611.7
2017-Jun-20 09:00N 35°24' E 139°46'611.1
2017-Jun-20 08:30N 35°18' E 139°45'510.7
2017-Jun-20 08:00N 35°13' E 139°47'245 9.4
2017-Jun-19 06:05N 34°04' E 135°01'111.8
2017-Jun-19 06:00N 34°05' E 135°02'611.4
2017-Jun-19 05:30N 34°11' E 135°02'19 0.8
2017-Jun-18 04:29N 34°28' E 135°13'1511.8
2017-Jun-18 03:10N 34°15' E 135°03'212.3
2017-Jun-18 03:01N 34°13' E 135°03'235 9.3
2017-Jun-17 01:41N 35°07' E 139°41'212.3
2017-Jun-17 01:29N 35°09' E 139°43'612.1
2017-Jun-17 01:00N 35°14' E 139°46'612.0
2017-Jun-17 00:30N 35°19' E 139°43'611.0
2017-Jun-17 00:00N 35°25' E 139°44'611.4
2017-Jun-16 23:30N 35°28' E 139°49'612.3
2017-Jun-16 23:00N 35°32' E 139°56'  
2017-Jun-14 07:58N 35°35' E 139°59'4 1.0
2017-Jun-14 03:45N 35°32' E 140°02'510.9
2017-Jun-14 03:15N 35°31' E 139°56'310.8
2017-Jun-14 03:00N 35°30' E 139°53'510.7
2017-Jun-14 02:30N 35°31' E 139°46'1 1.2
2017-Jun-14 02:00N 35°31' E 139°46'0 0.0
2017-Jun-14 01:30N 35°31' E 139°46'0 0.0
2017-Jun-14 01:00N 35°31' E 139°46'0 0.0
2017-Jun-14 00:30N 35°31' E 139°46'0 0.0
2017-Jun-14 00:00N 35°31' E 139°46'0 0.0
2017-Jun-13 23:30N 35°31' E 139°46'0 0.0
2017-Jun-13 23:00N 35°31' E 139°46'0 0.0
2017-Jun-13 22:30N 35°31' E 139°46'0 0.0
2017-Jun-13 22:00N 35°31' E 139°46'2 3.5
2017-Jun-13 21:30N 35°30' E 139°47'2 3.2
2017-Jun-13 20:58N 35°29' E 139°49'0 0.0
2017-Jun-13 20:28N 35°29' E 139°49'0 0.0
2017-Jun-13 19:58N 35°29' E 139°49'0 0.0
2017-Jun-13 19:28N 35°29' E 139°49'0 0.0
2017-Jun-13 18:55N 35°29' E 139°49'0 0.0
2017-Jun-13 18:28N 35°29' E 139°49'0 0.1
2017-Jun-13 17:58N 35°29' E 139°48'0 0.0
2017-Jun-13 17:28N 35°29' E 139°48'0 0.0
2017-Jun-13 16:55N 35°29' E 139°48'0 0.0
2017-Jun-13 16:28N 35°29' E 139°48'0 0.0
2017-Jun-13 15:58N 35°29' E 139°48'0 0.0
2017-Jun-13 15:28N 35°29' E 139°48'0 0.0
2017-Jun-13 14:58N 35°29' E 139°48'0 0.0
2017-Jun-13 14:28N 35°29' E 139°48'0 0.0
2017-Jun-13 13:28N 35°29' E 139°49'0 0.0
2017-Jun-13 12:58N 35°29' E 139°49'0 0.1
2017-Jun-13 12:28N 35°29' E 139°48'0 0.1
2017-Jun-13 11:58N 35°29' E 139°49'0 0.0
2017-Jun-13 11:28N 35°29' E 139°49'0 0.1
2017-Jun-13 10:58N 35°29' E 139°48'2 4.2
2017-Jun-13 10:30N 35°30' E 139°47'2 0.7
2017-Jun-13 07:57N 35°32' E 139°45'0 0.0
2017-Jun-13 04:34N 35°32' E 139°45'0 2.4
2017-Jun-13 04:25N 35°32' E 139°46'4 9.2
2017-Jun-13 03:59N 35°31' E 139°50'  

Dump ship's entire track history